National Oceanic Atmosphere Administration National Weather Service Headquarters National Weather Service Headquarters
NOAA logo WFO Anchorage Scalable transition graphic NWS logo
Transition from title bar to navgation bar   Aviation Weather 09 AKDT 
blankspace Home   |   Mobile   |   Social Media   |   Mesonet   |   Surface Map   |   Radar   |   Submit Storm Reports   |   News =17 GMT 

LocalForecast by City, St or Zip Code

spacer

Forecasts/Products
  Public
  Forecast Discussion
    - With Glossary
  Aviation
  Marine
  Hydrology(RFC)
  Rivers & Lakes AHPS
  Ice Desk
  TV Weather
  Fire Weather
  Avalanche
  Travel 511
  Graphical
  xml logo RSS Feeds
  Marine FTPMail

spacer

Data
  Mesonet
  Model Graphics
  Local Model
  Observations
  Marine Obs
  Satellite/Radar
  Vent Factor
  Soaring Index
  Weather Links

spacer

Climate
  PAFC Climate
  Interactive Climate
  PAFC Records
  Local
  National
  More

spacer

Outreach
  About Us
  Community Outreach
  Kids' Page
  Tour/Speaker Request
  Weather Classroom
  Social Media

spacer

Reports
  COOP Observers
  Local Storm Reports
  Spotter Page
  Submit a Storm Report

spacer

Miscellaneous
  Archived Alaska Weather Stories
  Student Career Opportunities
  Research Papers

spacer

Print Friendly/
Low Bandwidth

  Public Forecasts
  Marine Forecasts

spacer

Contact Us
  mailto pafcweb

spacer

Facebook Follow the National Weather Service in Alaska on Twitter
USA.gov is the U.S. government's official web portal to all federal, state and local government web resources and services.


 ICAO ID:   AAWU Graphics

Internet access to TAFs and METAR observations is for planning purposes only. We can not guarantee the timeliness of internet products. Before flying please get a formal pilot briefing (1-800-992-7433) and ALWAYS file a Flight Plan!Pilot briefings are provided to licensed aircraft pilots, ONLY! Others may not use the above number to obtain weather information.

Check out the Key to TAFs and METARs for help with decoding the information.

A 12 hour summary of TAFs can be found here.

PAKN TAF
PAKN 291736Z 2918/3018  21006KT 6SM BR SCT004 OVC008
      TEMPO 2918/2920 3SM BR BKN004
     FM292200 21007KT P6SM VCSH SCT012 BKN035
     FM301000 VRB03KT 1SM BR BKN004 OVC012=


SPECI PAKN 291747Z 21005KT 10SM OVC005 12/11 A2993 RMK AO2 CIG
 004V009 T01170111=
METAR PAKN 291654Z 21005KT 5SM BR OVC004 12/11 A2992 RMK AO2 DZE51
 SLP132 P0000 T01170111=
METAR PAKN 291654Z 21005KT 5SM BR OVC004 12/11 A2992=
METAR PAKN 291554Z 20006KT 3SM -DZ BR BKN004 OVC009 12/11 A2991 RMK AO2
     SLP129 P0000 T01170111=
METAR PAKN 291554Z 20006KT 3SM -DZ BR BKN004 OVC009 12/11 A2991=
PAKN 291534Z 19005KT 4SM -DZ BR BKN004 OVC009 12/11 A2991 RMK AO2
     P0000 T01170111=
PAKN 291534Z 19005KT 4SM -DZ BR BKN004 OVC009 12/11 A2991=
SPECI PAKN 291514Z 19006KT 2 1/2SM -DZ BR BKN004 OVC009 12/11 A2991 RMK
     AO2 P0000 T01170111=
PAKN 291514Z 19006KT 2 1/2SM -DZ BR BKN004 OVC009 12/11 A2991=
METAR PAKN 291454Z 18005KT 4SM -DZ BR BKN004 OVC009 12/11 A2990 RMK AO2
     SLP126 P0000 60001 T01170111 51003=
METAR PAKN 291454Z 18005KT 4SM -DZ BR BKN004 OVC009 12/11 A2990=
SPECI PAKN 291443Z 19007KT 3SM -DZ BR OVC003 12/11 A2990 RMK AO2 CIG
     002V007 P0000 T01170111=
SPECI PAKN 291419Z 18006KT 2SM -DZ BR OVC003 12/11 A2990 RMK AO2 CIG
     003V006 P0000 T01170111=
PAKN 291419Z 18006KT 2SM -DZ BR OVC003 12/11 A2990=
PAKN 291410Z 18006KT 2SM -DZ BR OVC005 12/11 A2990 RMK AO2 CIG
     003V006 P0000 T01170111=
PAKN 291410Z 18006KT 2SM -DZ BR OVC005 12/11 A2990=
METAR PAKN 291354Z 20006KT 6SM -DZ BR OVC005 12/11 A2990 RMK AO2
     DZB1255E32B51 SLP125 P0001 T01170111=
METAR PAKN 291354Z 20006KT 6SM -DZ BR OVC005 12/11 A2990=
SPECI PAKN 291337Z 20006KT 6SM BR OVC005 12/11 A2990 RMK AO2 DZB1255E32
     P0001 T01170111=
PAKN 291337Z 20006KT 6SM BR OVC005 12/11 A2990=


National Weather Service
Anchorage Forecast Office
6930 Sand Lake Road
Anchorage, Ak 99502
(907) 266-5105 M-F/7-5pm
About Us
Career Opportunities
Glossary
Disclaimer
Privacy Policy
Credits
Alaska Weather Information Line:
1-800-472-0391